Time;durP1;ratioP1;P1;durP2;ratioP2;P2;SDS_P1;SDS_P2;PMS_P1;PMS_P2;Temp;Humidity;BMP_temperature;BMP_pressure;BME280_temperature;BME280_humidity;BME280_pressure;Samples;Min_cycle;Max_cycle;Signal;HPM_P1;HPM_P2
2023/10/31 00:00:03;;;;;;;0.60;0.60;;;1.20;99.90;;;;;;5091372;28;20238;-71
2023/10/31 00:02:29;;;;;;;0.60;0.60;;;1.20;99.90;;;;;;5073139;28;20330;-70
2023/10/31 00:04:54;;;;;;;0.65;0.65;;;1.20;99.90;;;;;;5091332;28;20702;-71
2023/10/31 00:07:20;;;;;;;0.50;0.50;;;1.20;99.90;;;;;;5073440;28;20325;-73
2023/10/31 00:09:46;;;;;;;0.60;0.60;;;1.20;99.90;;;;;;5091377;28;20196;-73
2023/10/31 00:12:11;;;;;;;0.80;0.80;;;1.20;99.90;;;;;;5072923;28;20249;-71
2023/10/31 00:14:39;;;;;;;0.60;0.60;;;1.20;99.90;;;;;;5091107;28;20200;-73
2023/10/31 00:17:05;;;;;;;0.50;0.50;;;1.20;99.90;;;;;;5092073;28;20214;-71
2023/10/31 00:19:30;;;;;;;0.60;0.60;;;1.20;99.90;;;;;;5103798;28;20290;-70
2023/10/31 00:21:56;;;;;;;0.70;0.70;;;1.20;99.90;;;;;;5091105;28;20208;-71
2023/10/31 00:24:21;;;;;;;0.60;0.60;;;1.20;99.90;;;;;;5091106;28;20190;-70
2023/10/31 00:26:47;;;;;;;0.63;0.63;;;1.30;99.90;;;;;;5101768;28;20281;-70
2023/10/31 00:29:13;;;;;;;0.60;0.60;;;1.20;99.90;;;;;;5111521;28;20196;-71
2023/10/31 00:31:41;;;;;;;0.47;0.47;;;1.20;99.90;;;;;;5111401;28;20245;-70
2023/10/31 00:34:07;;;;;;;0.60;0.60;;;1.20;99.90;;;;;;5092970;28;20210;-70
2023/10/31 00:36:33;;;;;;;0.60;0.60;;;1.30;99.90;;;;;;5110476;28;20642;-69
2023/10/31 00:38:59;;;;;;;0.50;0.50;;;1.30;99.90;;;;;;5111146;28;20198;-69
2023/10/31 00:41:25;;;;;;;0.65;0.65;;;1.20;99.90;;;;;;5111099;28;20206;-69
2023/10/31 00:43:50;;;;;;;0.50;0.50;;;1.20;99.90;;;;;;5110960;28;20214;-68
2023/10/31 00:46:16;;;;;;;0.70;0.70;;;1.20;99.90;;;;;;5093165;28;20218;-68
2023/10/31 00:48:42;;;;;;;0.60;0.60;;;1.20;99.90;;;;;;5090571;28;20196;-70
2023/10/31 00:51:07;;;;;;;0.70;0.70;;;1.30;99.90;;;;;;5090837;28;20765;-69
2023/10/31 00:53:33;;;;;;;0.65;0.65;;;1.20;99.90;;;;;;5090610;28;20655;-69
2023/10/31 00:55:59;;;;;;;0.60;0.60;;;1.20;99.90;;;;;;5090409;28;20306;-70
2023/10/31 00:58:24;;;;;;;0.57;0.57;;;1.20;99.90;;;;;;5071993;28;20211;-69
2023/10/31 01:00:50;;;;;;;0.70;0.70;;;1.20;99.90;;;;;;5090354;28;20192;-68
2023/10/31 01:03:16;;;;;;;0.63;0.63;;;1.20;99.90;;;;;;5093793;28;20219;-68
2023/10/31 01:05:41;;;;;;;0.70;0.70;;;1.20;99.90;;;;;;5110533;28;20196;-68
2023/10/31 01:08:07;;;;;;;0.60;0.60;;;1.30;99.90;;;;;;5110673;28;20195;-68
2023/10/31 01:10:33;;;;;;;0.55;0.55;;;1.20;99.90;;;;;;5110707;28;20183;-68
2023/10/31 01:12:58;;;;;;;0.70;0.70;;;1.30;99.90;;;;;;5110430;28;20218;-68
2023/10/31 01:15:24;;;;;;;0.70;0.70;;;1.30;99.90;;;;;;5110309;28;20682;-67
2023/10/31 01:17:50;;;;;;;0.68;0.68;;;1.30;99.90;;;;;;5092211;28;20195;-68
2023/10/31 01:20:15;;;;;;;0.70;0.70;;;1.20;99.90;;;;;;5091115;28;20312;-67
2023/10/31 01:22:41;;;;;;;0.60;0.60;;;1.30;99.90;;;;;;5102620;28;20212;-69
2023/10/31 01:25:07;;;;;;;0.60;0.60;;;1.30;99.90;;;;;;5089901;28;20211;-67
2023/10/31 01:27:33;;;;;;;0.60;0.60;;;1.30;99.90;;;;;;5089737;28;20191;-72
2023/10/31 01:29:58;;;;;;;0.60;0.60;;;1.30;99.90;;;;;;5089811;28;20576;-72
2023/10/31 01:32:24;;;;;;;0.70;0.70;;;1.30;99.90;;;;;;5089767;28;20194;-72
2023/10/31 01:34:49;;;;;;;0.57;0.57;;;1.30;99.90;;;;;;5089651;28;20231;-71
2023/10/31 01:37:15;;;;;;;0.60;0.60;;;1.30;99.90;;;;;;5090035;28;20275;-72
2023/10/31 01:39:41;;;;;;;0.60;0.60;;;1.30;99.90;;;;;;5089466;28;20283;-71
2023/10/31 01:42:07;;;;;;;0.60;0.60;;;1.30;99.90;;;;;;5071246;28;20208;-72
2023/10/31 01:44:32;;;;;;;0.60;0.60;;;1.30;99.90;;;;;;5089725;28;20199;-71
2023/10/31 01:46:58;;;;;;;0.50;0.50;;;1.30;99.90;;;;;;5088902;28;20192;-72
2023/10/31 01:49:24;;;;;;;0.50;0.50;;;1.30;99.90;;;;;;5089542;28;20196;-72
2023/10/31 01:51:50;;;;;;;0.60;0.60;;;1.30;99.90;;;;;;5089768;28;20230;-72
2023/10/31 01:54:17;;;;;;;0.70;0.70;;;1.30;99.90;;;;;;5089341;28;20253;-72
2023/10/31 01:56:43;;;;;;;0.57;0.57;;;1.30;99.90;;;;;;5089164;28;20199;-72
2023/10/31 01:59:09;;;;;;;0.50;0.50;;;1.30;99.90;;;;;;5089225;28;20697;-72
2023/10/31 02:01:40;;;;;;;0.60;0.60;;;1.30;99.90;;;;;;5089260;28;20232;-72
2023/10/31 02:04:05;;;;;;;0.60;0.60;;;1.30;99.90;;;;;;5099684;28;20685;-72
2023/10/31 02:06:31;;;;;;;0.50;0.50;;;1.30;99.90;;;;;;5109475;28;20187;-71
2023/10/31 02:08:57;;;;;;;0.75;0.75;;;1.30;99.90;;;;;;5109671;28;20290;-71
2023/10/31 02:11:22;;;;;;;0.70;0.70;;;1.30;99.90;;;;;;5109464;28;20605;-71
2023/10/31 02:13:48;;;;;;;0.60;0.60;;;1.30;99.90;;;;;;5093722;28;20212;-72
2023/10/31 02:16:14;;;;;;;0.60;0.60;;;1.30;99.90;;;;;;5089212;28;20295;-69
2023/10/31 02:18:39;;;;;;;0.70;0.70;;;1.30;99.90;;;;;;5089593;28;20231;-70
2023/10/31 02:21:05;;;;;;;0.60;0.60;;;1.30;99.90;;;;;;5089227;28;20245;-70
2023/10/31 02:23:31;;;;;;;0.60;0.60;;;1.30;99.90;;;;;;5088708;28;20188;-69
2023/10/31 02:25:57;;;;;;;0.70;0.70;;;1.30;99.90;;;;;;5088859;28;20193;-70
2023/10/31 02:28:27;;;;;;;0.60;0.60;;;1.30;99.90;;;;;;5088806;28;20200;-69
2023/10/31 02:30:54;;;;;;;0.60;0.60;;;1.30;99.90;;;;;;5070605;28;20200;-69
2023/10/31 02:33:19;;;;;;;0.63;0.63;;;1.30;99.90;;;;;;5088932;28;20278;-69
2023/10/31 02:35:45;;;;;;;0.60;0.60;;;1.30;99.90;;;;;;5089343;28;20579;-69
2023/10/31 02:38:11;;;;;;;0.70;0.70;;;1.30;99.90;;;;;;5102052;28;20252;-69
2023/10/31 02:40:37;;;;;;;0.63;0.63;;;1.30;99.90;;;;;;5109341;28;20243;-67
2023/10/31 02:43:02;;;;;;;0.60;0.60;;;1.30;99.90;;;;;;5109094;28;20211;-69
2023/10/31 02:45:28;;;;;;;0.70;0.70;;;1.30;99.90;;;;;;5109071;28;20204;-68
2023/10/31 02:47:55;;;;;;;0.60;0.60;;;1.30;99.90;;;;;;5109100;28;20247;-69
2023/10/31 02:50:20;;;;;;;0.60;0.60;;;1.30;99.90;;;;;;5109079;28;20199;-69
2023/10/31 02:52:46;;;;;;;0.60;0.60;;;1.30;99.90;;;;;;5108993;28;20591;-67
2023/10/31 02:55:12;;;;;;;0.60;0.60;;;1.30;99.90;;;;;;5108910;28;20674;-68
2023/10/31 02:57:37;;;;;;;0.70;0.70;;;1.30;99.90;;;;;;5108909;28;21049;-68
2023/10/31 03:00:04;;;;;;;0.65;0.65;;;1.30;99.90;;;;;;5112777;28;20230;-70
2023/10/31 03:02:30;;;;;;;0.70;0.70;;;1.30;99.90;;;;;;5113151;28;20207;-67
2023/10/31 03:04:55;;;;;;;0.70;0.70;;;1.30;99.90;;;;;;5112899;28;20195;-69
2023/10/31 03:07:21;;;;;;;0.80;0.80;;;1.30;99.90;;;;;;5113116;28;20548;-68
2023/10/31 03:09:47;;;;;;;0.70;0.70;;;1.30;99.90;;;;;;5112819;28;20192;-67
2023/10/31 03:12:12;;;;;;;0.60;0.60;;;1.30;99.90;;;;;;5113050;28;20275;-67
2023/10/31 03:14:38;;;;;;;0.60;0.60;;;1.30;99.90;;;;;;5091326;28;20215;-68
2023/10/31 03:17:04;;;;;;;0.70;0.70;;;1.30;99.90;;;;;;5092560;28;20204;-69
2023/10/31 03:19:29;;;;;;;0.52;0.52;;;1.30;99.90;;;;;;5092516;28;20341;-68
2023/10/31 03:21:55;;;;;;;0.60;0.60;;;1.30;99.90;;;;;;5092427;28;20226;-69
2023/10/31 03:24:20;;;;;;;0.70;0.70;;;1.30;99.90;;;;;;5092155;28;20578;-67
2023/10/31 03:26:46;;;;;;;0.60;0.60;;;1.30;99.90;;;;;;5092253;28;20199;-68
2023/10/31 03:29:12;;;;;;;0.60;0.60;;;1.30;99.90;;;;;;5092425;28;20278;-68
2023/10/31 03:31:37;;;;;;;0.60;0.60;;;1.30;99.90;;;;;;5092041;28;20210;-68
2023/10/31 03:34:03;;;;;;;0.60;0.60;;;1.30;99.90;;;;;;5092170;28;20220;-68
2023/10/31 03:36:29;;;;;;;0.60;0.60;;;1.30;99.90;;;;;;5091986;28;20253;-68
2023/10/31 03:38:54;;;;;;;0.70;0.70;;;1.30;99.90;;;;;;5092084;28;20196;-68
2023/10/31 03:41:20;;;;;;;0.50;0.50;;;1.30;99.90;;;;;;5092008;28;20215;-69
2023/10/31 03:43:47;;;;;;;0.60;0.60;;;1.30;99.90;;;;;;5092120;28;20230;-69
2023/10/31 03:46:12;;;;;;;0.65;0.65;;;1.30;99.90;;;;;;5092306;28;20188;-70
2023/10/31 03:48:38;;;;;;;0.70;0.70;;;1.20;99.90;;;;;;5091982;28;20249;-70
2023/10/31 03:51:04;;;;;;;1.17;1.08;;;1.30;99.90;;;;;;5092010;28;20195;-70
2023/10/31 03:53:29;;;;;;;0.70;0.70;;;1.30;99.90;;;;;;5091679;28;20201;-70
2023/10/31 03:55:55;;;;;;;1.33;1.23;;;1.30;99.90;;;;;;5091771;28;20220;-70
2023/10/31 03:58:20;;;;;;;0.60;0.60;;;1.30;99.90;;;;;;5073294;28;20211;-69
2023/10/31 04:00:46;;;;;;;0.50;0.50;;;1.30;99.90;;;;;;5091543;28;20228;-71
2023/10/31 04:03:12;;;;;;;0.60;0.60;;;1.20;99.90;;;;;;5108260;28;20302;-69
2023/10/31 04:05:37;;;;;;;1.10;1.02;;;1.30;99.90;;;;;;5111522;28;20205;-69
2023/10/31 04:08:03;;;;;;;0.88;0.88;;;1.30;99.90;;;;;;5093380;28;20221;-70
2023/10/31 04:10:29;;;;;;;1.40;1.33;;;1.20;99.90;;;;;;5110460;28;20623;-70
2023/10/31 04:12:54;;;;;;;3.97;3.60;;;1.30;99.90;;;;;;5111633;28;20230;-70
2023/10/31 04:15:20;;;;;;;0.85;0.85;;;1.30;99.90;;;;;;5111475;28;20223;-70
2023/10/31 04:17:46;;;;;;;0.60;0.60;;;1.30;99.90;;;;;;5111580;28;20207;-71
2023/10/31 04:20:11;;;;;;;0.80;0.80;;;1.30;99.90;;;;;;5111538;28;20188;-69
2023/10/31 04:22:37;;;;;;;0.80;0.80;;;1.30;99.90;;;;;;5111497;28;20218;-71
2023/10/31 04:25:04;;;;;;;0.50;0.50;;;1.30;99.90;;;;;;5111751;28;20282;-69
2023/10/31 04:27:30;;;;;;;0.50;0.50;;;1.30;99.90;;;;;;5092886;28;20187;-70
2023/10/31 04:29:55;;;;;;;0.60;0.60;;;1.30;99.90;;;;;;5111531;28;20768;-69
2023/10/31 04:32:21;;;;;;;0.55;0.55;;;1.20;99.90;;;;;;5111214;28;20286;-71
2023/10/31 04:34:46;;;;;;;1.45;1.35;;;1.30;99.90;;;;;;5111447;28;20526;-69
2023/10/31 04:37:12;;;;;;;1.30;1.20;;;1.30;99.90;;;;;;5111186;28;20195;-70
2023/10/31 04:39:38;;;;;;;0.98;0.98;;;1.30;99.90;;;;;;5111279;28;20195;-71
2023/10/31 04:42:03;;;;;;;0.70;0.70;;;1.20;99.90;;;;;;5111251;28;20215;-71
2023/10/31 04:44:29;;;;;;;0.70;0.70;;;1.20;99.90;;;;;;5111067;28;20195;-71
2023/10/31 04:46:55;;;;;;;0.60;0.60;;;1.20;99.90;;;;;;5111248;28;20191;-69
2023/10/31 04:49:20;;;;;;;0.60;0.60;;;1.20;99.90;;;;;;5111031;28;20318;-70
2023/10/31 04:51:46;;;;;;;0.50;0.50;;;1.30;99.90;;;;;;5111015;28;20183;-70
2023/10/31 04:54:11;;;;;;;0.50;0.50;;;1.30;99.90;;;;;;5111145;28;20206;-69
2023/10/31 04:56:37;;;;;;;0.57;0.57;;;1.30;99.90;;;;;;5110884;28;20226;-70
2023/10/31 04:59:03;;;;;;;0.60;0.60;;;1.30;99.90;;;;;;5092659;28;20244;-69
2023/10/31 05:01:29;;;;;;;0.60;0.60;;;1.30;99.90;;;;;;5104183;28;20211;-69
2023/10/31 05:03:54;;;;;;;0.50;0.50;;;1.30;99.90;;;;;;5081007;28;20376;-69
2023/10/31 05:06:21;;;;;;;0.70;0.70;;;1.30;99.90;;;;;;5110587;28;20292;-69
2023/10/31 05:08:47;;;;;;;0.60;0.60;;;1.30;99.90;;;;;;5110543;28;20208;-69
2023/10/31 05:11:12;;;;;;;0.50;0.50;;;1.30;99.90;;;;;;5110672;28;20195;-70
2023/10/31 05:13:39;;;;;;;0.60;0.60;;;1.30;99.90;;;;;;5110381;28;20199;-69
2023/10/31 05:16:05;;;;;;;0.65;0.65;;;1.30;99.90;;;;;;5110445;28;20210;-71
2023/10/31 05:18:31;;;;;;;0.65;0.65;;;1.30;99.90;;;;;;5110291;28;20188;-69
2023/10/31 05:20:56;;;;;;;0.60;0.60;;;1.20;99.90;;;;;;5110179;28;20191;-70
2023/10/31 05:23:22;;;;;;;0.70;0.70;;;1.30;99.90;;;;;;5109968;28;20199;-71
2023/10/31 05:25:48;;;;;;;0.55;0.55;;;1.30;99.90;;;;;;5110091;28;20275;-70
2023/10/31 05:28:13;;;;;;;0.57;0.57;;;1.20;99.90;;;;;;5110234;28;20188;-70
2023/10/31 05:30:39;;;;;;;0.63;0.63;;;1.30;99.90;;;;;;5091658;28;20279;-70
2023/10/31 05:33:04;;;;;;;0.60;0.60;;;1.30;99.90;;;;;;5110105;28;20195;-71
2023/10/31 05:35:30;;;;;;;0.70;0.70;;;1.30;99.90;;;;;;5091661;28;20689;-70
2023/10/31 05:37:56;;;;;;;0.63;0.63;;;1.30;99.90;;;;;;5110020;28;20187;-70
2023/10/31 05:40:24;;;;;;;0.70;0.70;;;1.30;99.90;;;;;;5109865;28;20203;-70
2023/10/31 05:42:50;;;;;;;0.60;0.60;;;1.20;99.90;;;;;;5109992;28;20694;-69
2023/10/31 05:45:16;;;;;;;0.90;0.90;;;1.30;99.90;;;;;;5110043;28;20244;-69
2023/10/31 05:47:41;;;;;;;0.60;0.60;;;1.30;99.90;;;;;;5110059;28;20648;-69
2023/10/31 05:50:08;;;;;;;0.60;0.60;;;1.30;99.90;;;;;;5091655;28;20222;-69
2023/10/31 05:52:34;;;;;;;0.60;0.60;;;1.30;99.90;;;;;;5091455;28;20674;-69
2023/10/31 05:55:00;;;;;;;0.50;0.50;;;1.30;99.90;;;;;;5087801;28;20231;-69
2023/10/31 05:57:25;;;;;;;0.60;0.60;;;1.30;99.90;;;;;;5089009;28;20284;-70
2023/10/31 05:59:51;;;;;;;0.60;0.60;;;1.30;99.90;;;;;;5089493;28;20200;-70
2023/10/31 06:02:16;;;;;;;0.57;0.57;;;1.30;99.90;;;;;;5089117;28;20348;-70
2023/10/31 06:04:42;;;;;;;0.98;0.98;;;1.30;99.90;;;;;;5088482;28;20253;-70
2023/10/31 06:07:08;;;;;;;0.95;0.95;;;1.30;99.90;;;;;;5089509;28;20214;-69
2023/10/31 06:09:34;;;;;;;0.60;0.60;;;1.30;99.90;;;;;;5089198;28;20245;-70
2023/10/31 06:12:00;;;;;;;0.60;0.60;;;1.30;99.90;;;;;;5087900;28;20651;-70
2023/10/31 06:14:26;;;;;;;0.70;0.70;;;1.30;99.90;;;;;;5087617;28;20204;-70
2023/10/31 06:16:52;;;;;;;0.90;0.90;;;1.30;99.90;;;;;;5089066;28;20734;-69
2023/10/31 06:19:18;;;;;;;0.80;0.80;;;1.30;99.90;;;;;;5089023;28;20261;-70
2023/10/31 06:21:44;;;;;;;0.50;0.50;;;1.30;99.90;;;;;;5088752;28;20874;-70
2023/10/31 06:24:09;;;;;;;0.60;0.60;;;1.30;99.90;;;;;;5088886;28;20647;-70
2023/10/31 06:26:35;;;;;;;0.70;0.70;;;1.30;99.90;;;;;;5088841;28;20192;-71
2023/10/31 06:29:01;;;;;;;0.70;0.70;;;1.30;99.90;;;;;;5088953;28;20607;-71
2023/10/31 06:31:27;;;;;;;0.73;0.73;;;1.30;99.90;;;;;;5088887;28;20586;-71
2023/10/31 06:33:52;;;;;;;0.63;0.63;;;1.30;99.90;;;;;;5090946;28;20188;-72
2023/10/31 06:36:18;;;;;;;0.68;0.68;;;1.30;99.90;;;;;;5091740;28;20199;-71
2023/10/31 06:38:44;;;;;;;0.60;0.60;;;1.30;99.90;;;;;;5093228;28;20252;-72
2023/10/31 06:41:09;;;;;;;0.85;0.85;;;1.30;99.90;;;;;;5091749;28;20204;-71
2023/10/31 06:43:35;;;;;;;0.68;0.68;;;1.30;99.90;;;;;;5093237;28;20188;-71
2023/10/31 06:46:03;;;;;;;0.70;0.70;;;1.30;99.90;;;;;;5093029;28;20192;-72
2023/10/31 06:48:28;;;;;;;0.50;0.50;;;1.30;99.90;;;;;;5092843;28;20279;-71
2023/10/31 06:50:54;;;;;;;0.70;0.70;;;1.30;99.90;;;;;;5091456;28;20279;-71
2023/10/31 06:53:19;;;;;;;0.52;0.52;;;1.30;99.90;;;;;;5092562;28;20340;-70
2023/10/31 06:55:45;;;;;;;0.68;0.68;;;1.30;99.90;;;;;;5092447;28;20216;-70
2023/10/31 06:58:11;;;;;;;0.60;0.60;;;1.30;99.90;;;;;;5092830;28;20310;-70
2023/10/31 07:00:37;;;;;;;1.63;1.27;;;1.30;99.90;;;;;;5081700;28;20346;-70
2023/10/31 07:03:08;;;;;;;0.70;0.70;;;1.30;99.90;;;;;;5074187;28;20307;-71
2023/10/31 07:05:37;;;;;;;1.10;1.10;;;1.30;99.90;;;;;;5092539;28;20181;-70
2023/10/31 07:08:03;;;;;;;1.00;1.00;;;1.30;99.90;;;;;;5092636;28;20301;-71
2023/10/31 07:10:29;;;;;;;0.50;0.50;;;1.30;99.90;;;;;;5092557;28;20274;-71
2023/10/31 07:12:55;;;;;;;0.60;0.60;;;1.40;99.90;;;;;;5092418;28;20239;-70
2023/10/31 07:15:21;;;;;;;0.50;0.50;;;1.40;99.90;;;;;;5092304;28;20231;-70
2023/10/31 07:17:47;;;;;;;1.23;1.15;;;1.40;99.90;;;;;;5092633;28;20208;-71
2023/10/31 07:20:13;;;;;;;1.33;1.23;;;1.40;99.90;;;;;;5092197;28;20217;-71
2023/10/31 07:22:39;;;;;;;0.85;0.85;;;1.40;99.90;;;;;;5092054;28;20212;-70
2023/10/31 07:25:06;;;;;;;0.70;0.70;;;1.40;99.90;;;;;;5092298;28;20679;-71
2023/10/31 07:27:32;;;;;;;0.70;0.70;;;1.40;99.90;;;;;;5092424;28;20196;-71
2023/10/31 07:29:58;;;;;;;0.75;0.75;;;1.40;99.90;;;;;;5092349;28;20334;-70
2023/10/31 07:32:23;;;;;;;0.70;0.70;;;1.40;99.90;;;;;;5091968;28;20199;-70
2023/10/31 07:34:49;;;;;;;0.82;0.82;;;1.40;99.90;;;;;;5092131;28;20566;-71
2023/10/31 07:37:15;;;;;;;0.50;0.50;;;1.40;99.90;;;;;;5092008;28;20207;-69
2023/10/31 07:39:40;;;;;;;0.60;0.60;;;1.40;99.90;;;;;;5091918;28;20196;-68
2023/10/31 07:42:06;;;;;;;0.80;0.80;;;1.40;99.90;;;;;;5092075;28;20608;-67
2023/10/31 07:44:32;;;;;;;0.50;0.50;;;1.40;99.90;;;;;;5091564;28;20223;-69
2023/10/31 07:46:57;;;;;;;1.00;1.00;;;1.40;99.90;;;;;;5092021;28;20193;-68
2023/10/31 07:49:23;;;;;;;0.57;0.57;;;1.40;99.90;;;;;;5091732;28;20241;-67
2023/10/31 07:51:49;;;;;;;0.60;0.60;;;1.40;99.90;;;;;;5071648;28;20205;-67
2023/10/31 07:54:16;;;;;;;0.60;0.60;;;1.40;99.90;;;;;;5071403;28;20606;-67
2023/10/31 07:56:42;;;;;;;0.70;0.70;;;1.40;99.90;;;;;;5101616;28;20223;-68
2023/10/31 07:59:08;;;;;;;0.60;0.60;;;1.40;99.90;;;;;;5112192;28;20195;-70
2023/10/31 08:01:35;;;;;;;1.02;1.02;;;1.40;99.90;;;;;;5111729;28;20760;-67
2023/10/31 08:04:01;;;;;;;0.60;0.60;;;1.50;99.90;;;;;;5111593;28;20191;-67
2023/10/31 08:06:27;;;;;;;0.60;0.60;;;1.50;99.90;;;;;;5111728;28;20203;-67
2023/10/31 08:08:53;;;;;;;0.70;0.70;;;1.40;99.90;;;;;;5111841;28;20195;-67
2023/10/31 08:11:19;;;;;;;0.68;0.68;;;1.50;99.90;;;;;;5111799;28;20195;-67
2023/10/31 08:13:44;;;;;;;0.80;0.80;;;1.40;99.90;;;;;;5111610;28;20226;-67
2023/10/31 08:16:10;;;;;;;0.60;0.60;;;1.50;99.90;;;;;;5094316;28;20228;-67
2023/10/31 08:18:36;;;;;;;0.70;0.70;;;1.50;99.90;;;;;;5091012;28;20686;-69
2023/10/31 08:21:03;;;;;;;0.85;0.85;;;1.50;99.90;;;;;;5072827;28;20192;-67
2023/10/31 08:23:29;;;;;;;0.77;0.77;;;1.50;99.90;;;;;;5090691;28;20215;-68
2023/10/31 08:25:55;;;;;;;0.70;0.70;;;1.50;99.90;;;;;;5090905;28;20196;-67
2023/10/31 08:28:21;;;;;;;0.70;0.70;;;1.50;99.90;;;;;;5091152;28;20815;-71
2023/10/31 08:30:47;;;;;;;0.80;0.80;;;1.50;99.90;;;;;;5072817;28;20192;-71
2023/10/31 08:33:13;;;;;;;0.65;0.65;;;1.50;99.90;;;;;;5094723;27;20569;-71
2023/10/31 08:35:39;;;;;;;0.65;0.65;;;1.50;99.90;;;;;;5132029;27;20191;-72
2023/10/31 08:38:05;;;;;;;0.77;0.77;;;1.60;99.90;;;;;;5131974;27;20645;-71
2023/10/31 08:40:30;;;;;;;1.13;1.02;;;1.70;99.90;;;;;;5132097;27;20191;-71
2023/10/31 08:42:56;;;;;;;1.65;1.05;;;1.60;99.90;;;;;;5113155;27;20214;-71
2023/10/31 08:45:22;;;;;;;0.90;0.90;;;1.70;99.90;;;;;;5113337;27;20191;-71
2023/10/31 08:47:48;;;;;;;0.60;0.60;;;1.70;99.90;;;;;;5113758;27;20672;-71
2023/10/31 08:50:14;;;;;;;0.70;0.70;;;1.70;99.90;;;;;;5092823;28;20244;-71
2023/10/31 08:52:40;;;;;;;2.42;1.48;;;1.60;99.90;;;;;;5103396;28;20204;-71
2023/10/31 08:55:06;;;;;;;1.50;1.40;;;1.60;99.90;;;;;;5083324;28;20233;-72
2023/10/31 08:57:33;;;;;;;1.23;1.13;;;1.70;99.90;;;;;;5069771;28;20820;-71
2023/10/31 09:00:04;;;;;;;0.98;0.98;;;1.70;99.90;;;;;;5070270;28;20192;-72
2023/10/31 09:02:30;;;;;;;0.75;0.75;;;1.70;99.90;;;;;;5052231;28;20241;-72
2023/10/31 09:04:56;;;;;;;2.25;1.90;;;1.70;99.90;;;;;;5087552;28;20287;-72
2023/10/31 09:07:22;;;;;;;0.60;0.60;;;1.70;99.90;;;;;;5090239;28;20271;-72
2023/10/31 09:09:48;;;;;;;0.70;0.70;;;1.70;99.90;;;;;;5090283;28;20594;-71
2023/10/31 09:12:13;;;;;;;1.35;1.25;;;1.70;99.90;;;;;;5090399;28;20714;-71
2023/10/31 09:14:40;;;;;;;1.27;1.20;;;1.70;99.90;;;;;;5090122;28;20200;-72
2023/10/31 09:17:06;;;;;;;0.75;0.75;;;1.70;99.90;;;;;;5090390;28;20204;-72
2023/10/31 09:19:32;;;;;;;0.75;0.75;;;1.80;99.90;;;;;;5090135;28;20188;-72
2023/10/31 09:21:57;;;;;;;0.57;0.57;;;1.80;99.90;;;;;;5090056;28;20219;-72
2023/10/31 09:24:23;;;;;;;0.60;0.60;;;1.80;99.90;;;;;;5089961;28;20207;-72
2023/10/31 09:26:49;;;;;;;0.52;0.52;;;1.90;99.90;;;;;;5089905;28;20265;-71
2023/10/31 09:29:15;;;;;;;0.68;0.68;;;1.90;99.90;;;;;;5089723;28;20617;-72
2023/10/31 09:31:40;;;;;;;0.70;0.70;;;1.80;99.90;;;;;;5069513;28;20212;-71
2023/10/31 09:34:07;;;;;;;0.70;0.70;;;1.80;99.90;;;;;;5069819;28;20224;-72
2023/10/31 09:36:36;;;;;;;0.60;0.60;;;1.80;99.90;;;;;;5069625;28;20664;-71
2023/10/31 09:39:02;;;;;;;0.70;0.70;;;1.90;99.90;;;;;;5070092;28;20225;-71
2023/10/31 09:41:28;;;;;;;0.70;0.70;;;2.00;99.90;;;;;;5069913;28;20208;-71
2023/10/31 09:43:54;;;;;;;0.60;0.60;;;2.00;99.90;;;;;;5086109;28;20184;-71
2023/10/31 09:46:21;;;;;;;0.73;0.73;;;2.00;99.90;;;;;;5089978;28;20189;-71
2023/10/31 09:48:48;;;;;;;0.80;0.80;;;2.00;99.90;;;;;;5065787;28;20215;-71
2023/10/31 09:51:14;;;;;;;1.38;1.27;;;2.00;99.90;;;;;;5069659;28;20220;-71
2023/10/31 09:53:41;;;;;;;0.50;0.50;;;2.00;99.90;;;;;;5069447;28;20695;-70
2023/10/31 09:56:07;;;;;;;0.50;0.50;;;2.00;99.90;;;;;;5085235;28;20212;-70
2023/10/31 09:58:34;;;;;;;0.60;0.60;;;2.00;99.90;;;;;;5089935;28;20269;-71
2023/10/31 10:01:00;;;;;;;0.60;0.60;;;2.00;99.90;;;;;;5073444;28;20192;-71
2023/10/31 10:03:27;;;;;;;0.60;0.60;;;2.00;99.90;;;;;;5104560;28;20212;-72
2023/10/31 10:05:53;;;;;;;0.60;0.60;;;1.90;99.90;;;;;;5089937;28;20192;-72
2023/10/31 10:08:19;;;;;;;0.63;0.63;;;1.90;99.90;;;;;;5088862;28;20199;-72
2023/10/31 10:10:45;;;;;;;0.50;0.50;;;2.00;99.90;;;;;;5071259;28;20681;-72
2023/10/31 10:13:12;;;;;;;0.60;0.60;;;2.00;99.90;;;;;;5089467;28;20204;-71
2023/10/31 10:15:48;;;;;;;1.13;1.10;;;2.00;99.90;;;;;;5071228;28;20200;-72
2023/10/31 10:18:39;;;;;;;0.80;0.80;;;2.00;99.90;;;;;;5071310;28;20203;-72
2023/10/31 10:21:06;;;;;;;0.65;0.65;;;2.00;99.90;;;;;;5089584;28;20192;-72
2023/10/31 10:23:33;;;;;;;1.42;1.33;;;2.00;99.90;;;;;;5089379;28;20295;-71
2023/10/31 10:26:00;;;;;;;0.70;0.70;;;2.10;99.90;;;;;;5089364;28;20192;-72
2023/10/31 10:28:29;;;;;;;0.80;0.80;;;2.10;99.90;;;;;;5089262;28;20229;-72
2023/10/31 10:30:55;;;;;;;0.60;0.60;;;2.10;99.90;;;;;;5071149;28;20196;-72
2023/10/31 10:33:21;;;;;;;0.65;0.65;;;2.10;99.90;;;;;;5071338;28;20202;-72
2023/10/31 10:35:47;;;;;;;1.17;1.08;;;2.10;99.90;;;;;;5071189;28;20260;-71
2023/10/31 10:38:15;;;;;;;1.63;1.25;;;2.10;99.90;;;;;;5089672;28;20679;-72
2023/10/31 10:40:43;;;;;;;0.57;0.57;;;2.20;99.90;;;;;;5109605;28;20204;-72
2023/10/31 10:43:25;;;;;;;0.60;0.60;;;2.20;99.90;;;;;;5091399;28;20211;-72
2023/10/31 10:45:57;;;;;;;2.47;1.65;;;2.20;99.90;;;;;;5096566;28;20204;-72
2023/10/31 10:48:25;;;;;;;0.60;0.60;;;2.20;99.90;;;;;;5089380;28;20199;-72
2023/10/31 10:50:59;;;;;;;0.80;0.80;;;2.20;99.90;;;;;;5070985;28;20253;-72
2023/10/31 10:53:28;;;;;;;0.57;0.57;;;2.10;99.90;;;;;;5070861;28;20570;-72
2023/10/31 10:56:16;;;;;;;0.60;0.60;;;2.10;99.90;;;;;;5067427;28;20738;-72
2023/10/31 10:58:53;;;;;;;0.85;0.85;;;2.10;99.90;;;;;;5083400;28;20208;-72
2023/10/31 11:01:19;;;;;;;0.60;0.60;;;2.00;99.90;;;;;;5089233;28;20184;-71
2023/10/31 11:03:46;;;;;;;0.85;0.85;;;2.10;99.90;;;;;;5088987;28;20184;-72
2023/10/31 11:06:13;;;;;;;2.83;1.23;;;2.10;99.90;;;;;;5089303;28;20336;-71
2023/10/31 11:08:41;;;;;;;0.70;0.70;;;2.10;99.90;;;;;;5087827;28;20203;-71
2023/10/31 11:11:06;;;;;;;0.80;0.80;;;2.20;99.90;;;;;;5089322;28;20185;-71
2023/10/31 11:13:32;;;;;;;0.65;0.65;;;2.20;99.90;;;;;;5089570;28;20188;-72
2023/10/31 11:16:07;;;;;;;0.60;0.60;;;2.20;99.90;;;;;;5087987;28;20204;-71
2023/10/31 11:18:32;;;;;;;0.68;0.68;;;2.30;99.90;;;;;;5087669;28;20199;-71
2023/10/31 11:20:58;;;;;;;0.60;0.60;;;2.30;99.90;;;;;;5092520;28;20203;-71
2023/10/31 11:23:24;;;;;;;0.55;0.55;;;2.30;99.90;;;;;;5094472;28;20580;-71
2023/10/31 11:25:53;;;;;;;0.60;0.60;;;2.30;99.90;;;;;;5113292;28;20264;-72
2023/10/31 11:28:19;;;;;;;0.60;0.60;;;2.30;99.90;;;;;;5113302;28;20179;-71
2023/10/31 11:30:48;;;;;;;0.50;0.50;;;2.30;99.90;;;;;;5113107;28;20196;-72
2023/10/31 11:33:15;;;;;;;0.60;0.60;;;2.30;99.90;;;;;;5094781;28;20195;-71
2023/10/31 11:35:44;;;;;;;0.70;0.70;;;2.40;99.90;;;;;;5102338;28;20203;-72
2023/10/31 11:38:11;;;;;;;0.55;0.55;;;2.30;99.90;;;;;;5091650;28;20690;-71
2023/10/31 11:40:49;;;;;;;0.60;0.60;;;2.40;99.90;;;;;;5092000;28;20275;-71
2023/10/31 11:43:16;;;;;;;0.70;0.70;;;2.40;99.90;;;;;;5072548;28;20213;-71
2023/10/31 11:45:47;;;;;;;0.60;0.60;;;2.40;99.90;;;;;;5072292;28;20200;-71
2023/10/31 11:48:14;;;;;;;0.60;0.60;;;2.50;99.90;;;;;;5072418;28;20244;-71
2023/10/31 11:50:40;;;;;;;0.70;0.70;;;2.50;99.90;;;;;;5070790;28;20591;-71
2023/10/31 11:53:16;;;;;;;0.57;0.57;;;2.50;99.90;;;;;;5072348;28;20212;-71
2023/10/31 11:55:43;;;;;;;0.60;0.60;;;2.50;99.90;;;;;;5070424;28;20224;-72
2023/10/31 11:58:12;;;;;;;0.80;0.80;;;2.40;99.90;;;;;;5072412;28;20262;-71
2023/10/31 12:00:38;;;;;;;0.60;0.60;;;2.40;99.90;;;;;;5083322;28;20662;-71
2023/10/31 12:03:04;;;;;;;0.60;0.60;;;2.40;99.90;;;;;;5091158;28;20219;-71
2023/10/31 12:05:29;;;;;;;0.60;0.60;;;2.40;99.90;;;;;;5090930;28;20720;-71
2023/10/31 12:07:56;;;;;;;0.60;0.60;;;2.40;99.90;;;;;;5092129;28;20185;-73
2023/10/31 12:10:24;;;;;;;0.68;0.68;;;2.40;99.90;;;;;;5091312;28;20612;-72
2023/10/31 12:12:50;;;;;;;0.70;0.70;;;2.40;99.90;;;;;;5091694;28;20245;-73
2023/10/31 12:15:16;;;;;;;0.60;0.60;;;2.40;99.90;;;;;;5089790;28;20201;-73
2023/10/31 12:17:41;;;;;;;0.50;0.50;;;2.40;99.90;;;;;;5090854;28;20215;-73
2023/10/31 12:20:08;;;;;;;0.47;0.47;;;2.30;99.90;;;;;;5091038;28;20253;-74
2023/10/31 12:22:35;;;;;;;0.60;0.60;;;2.30;99.90;;;;;;5091112;28;20673;-72
2023/10/31 12:25:04;;;;;;;0.70;0.70;;;2.30;99.90;;;;;;5091142;28;20660;-72
2023/10/31 12:27:48;;;;;;;0.60;0.60;;;2.40;99.90;;;;;;5091116;28;20602;-73
2023/10/31 12:30:20;;;;;;;0.70;0.70;;;2.40;99.90;;;;;;5090760;28;20566;-73
2023/10/31 12:32:57;;;;;;;0.60;0.60;;;2.40;99.90;;;;;;5090191;28;20541;-73
2023/10/31 12:35:25;;;;;;;0.63;0.63;;;2.40;99.90;;;;;;5090920;28;20667;-73
2023/10/31 12:37:51;;;;;;;0.75;0.75;;;2.40;99.90;;;;;;5082103;28;20205;-73
2023/10/31 12:40:21;;;;;;;0.63;0.63;;;2.40;99.90;;;;;;5070769;28;20197;-73
2023/10/31 12:42:48;;;;;;;0.60;0.60;;;2.40;99.90;;;;;;5070683;28;20204;-72
2023/10/31 12:45:15;;;;;;;0.70;0.70;;;2.40;99.90;;;;;;5069124;28;20220;-73
2023/10/31 12:47:40;;;;;;;0.50;0.50;;;2.40;99.90;;;;;;5069032;28;20750;-73
2023/10/31 12:50:08;;;;;;;0.60;0.60;;;2.40;99.90;;;;;;5070653;28;20189;-72
2023/10/31 12:52:46;;;;;;;0.68;0.68;;;2.50;99.90;;;;;;5070175;28;20192;-74